Banning, CA

5:39 PM PST on March 01, 2015 (GMT -0800)
Banning, CA: I-10 1mile N of Sun Lakes | Change Station
CLOSE
Current Station
Personal Weather Station
Location: Banning, CA
Elevation: 2543 ft
Nearby Weather Stations

Elev 2543 ft 33.93 °N, 116.93 °W | Updated 4 seconds ago

Overcast
Overcast
42.6 °F
Feels Like 43 °F
N
0.0
Wind Variable Wind from East
Gusts 7.0 mph

Today
High -- | Low -- °F
--% Chance of Precip.
Yesterday
High -- | Low -- °F
Precip. -- in
6:16 AM 5:43 PM
Waxing Gibbous, 88% visible
Pressure 29.90 in
Visibility 10.0 miles
Clouds Few 2500 ft
Mostly Cloudy 12000 ft
Windchill 43 °F
Dew Point 41 °F
Humidity 95%
Rainfall 0.30 in
Snow Depth Not available.
UV 0 out of 12
Pollen .80 out of 12
Air Quality Not available.
Flu Activity Not available.
METAR KRIV 020058Z AUTO 15008KT 10SM FEW025 BKN120 11/06 A2990 RMK AO2 SLP124 T01080062

More Conditions Fewer Conditions

Pressure 29.90 in
Visibility 10.0 miles
Clouds Few 2500 ft
Mostly Cloudy 12000 ft
Windchill 43 °F
Dew Point 41 °F
Humidity 95%
Rainfall 0.30 in
Snow Depth Not available.
UV 0 out of 12
Pollen .80 out of 12
Air Quality Not available.
Flu Activity Not available.
METAR KRIV 020058Z AUTO 15008KT 10SM FEW025 BKN120 11/06 A2990 RMK AO2 SLP124 T01080062

More Conditions Fewer Conditions

10-Day Weather Forecast

Almanac

Astronomy

Mar. 01, 2015 Rise Set
Actual Time
Civil Twilight
Nautical Twilight
Astronomical Twilight
Moon
Length of Visible Light
Length of Day
Tomorrow will be .
, % of the Moon is Illuminated

Today's Extremes

State Highs State Lows

Community

WunderPhotos

Upload Photos

1,801,680 photos uploaded!

WunderBlogs® & News

Nearby

Air Quality

  Air Quality AQ Index Pollutant
Not available.

Snow Depth

Station Depth Elevation

Earthquake Activity

City Distance Mag. Time & Date
Minimum magnitude displayed is 2.5.

Coastal Water Temperatures

Place Temperature

Nearby Weather Stations